sensor_id;sensor_type;location;lat;lon;timestamp;temperature;humidity
21261;DHT22;10788;47.930;9.766;2023-07-02T00:02:23;16.10;99.90
21261;DHT22;10788;47.930;9.766;2023-07-02T00:04:49;16.10;99.90
21261;DHT22;10788;47.930;9.766;2023-07-02T00:07:14;16.10;99.90
21261;DHT22;10788;47.930;9.766;2023-07-02T00:09:40;16.10;99.90
21261;DHT22;10788;47.930;9.766;2023-07-02T00:12:06;16.10;99.90
21261;DHT22;10788;47.930;9.766;2023-07-02T00:14:32;16.10;99.90
21261;DHT22;10788;47.930;9.766;2023-07-02T00:16:58;16.10;99.90
21261;DHT22;10788;47.930;9.766;2023-07-02T00:19:24;16.10;99.90
21261;DHT22;10788;47.930;9.766;2023-07-02T00:21:49;16.20;99.90
21261;DHT22;10788;47.930;9.766;2023-07-02T00:24:15;16.20;99.90
21261;DHT22;10788;47.930;9.766;2023-07-02T00:26:41;16.10;99.90
21261;DHT22;10788;47.930;9.766;2023-07-02T00:29:07;16.10;99.90
21261;DHT22;10788;47.930;9.766;2023-07-02T00:31:35;16.10;99.90
21261;DHT22;10788;47.930;9.766;2023-07-02T00:34:01;16.10;99.90
21261;DHT22;10788;47.930;9.766;2023-07-02T00:36:30;16.10;99.90
21261;DHT22;10788;47.930;9.766;2023-07-02T00:38:56;16.10;99.90
21261;DHT22;10788;47.930;9.766;2023-07-02T00:41:23;16.10;99.90
21261;DHT22;10788;47.930;9.766;2023-07-02T00:43:48;16.10;99.90
21261;DHT22;10788;47.930;9.766;2023-07-02T00:46:16;16.10;99.90
21261;DHT22;10788;47.930;9.766;2023-07-02T00:48:50;16.10;99.90
21261;DHT22;10788;47.930;9.766;2023-07-02T00:51:21;16.10;99.90
21261;DHT22;10788;47.930;9.766;2023-07-02T00:53:48;16.10;99.90
21261;DHT22;10788;47.930;9.766;2023-07-02T00:56:14;16.10;99.90
21261;DHT22;10788;47.930;9.766;2023-07-02T00:58:43;16.10;99.90
21261;DHT22;10788;47.930;9.766;2023-07-02T01:01:21;16.10;99.90
21261;DHT22;10788;47.930;9.766;2023-07-02T01:06:32;16.00;99.90
21261;DHT22;10788;47.930;9.766;2023-07-02T01:09:00;15.90;99.90
21261;DHT22;10788;47.930;9.766;2023-07-02T01:11:29;16.00;99.90
21261;DHT22;10788;47.930;9.766;2023-07-02T01:14:02;15.90;99.90
21261;DHT22;10788;47.930;9.766;2023-07-02T01:16:29;15.90;99.90
21261;DHT22;10788;47.930;9.766;2023-07-02T01:18:59;15.90;99.90
21261;DHT22;10788;47.930;9.766;2023-07-02T01:21:29;15.90;99.90
21261;DHT22;10788;47.930;9.766;2023-07-02T01:23:54;15.90;99.90
21261;DHT22;10788;47.930;9.766;2023-07-02T01:26:20;15.90;99.90
21261;DHT22;10788;47.930;9.766;2023-07-02T01:28:46;15.80;99.90
21261;DHT22;10788;47.930;9.766;2023-07-02T01:31:11;15.80;99.90
21261;DHT22;10788;47.930;9.766;2023-07-02T01:33:37;15.80;99.90
21261;DHT22;10788;47.930;9.766;2023-07-02T01:36:03;15.80;99.90
21261;DHT22;10788;47.930;9.766;2023-07-02T01:38:29;15.80;99.90
21261;DHT22;10788;47.930;9.766;2023-07-02T01:40:54;15.80;99.90
21261;DHT22;10788;47.930;9.766;2023-07-02T01:43:20;15.80;99.90
21261;DHT22;10788;47.930;9.766;2023-07-02T01:45:45;15.80;99.90
21261;DHT22;10788;47.930;9.766;2023-07-02T01:48:11;15.80;99.90
21261;DHT22;10788;47.930;9.766;2023-07-02T01:50:37;15.70;99.90
21261;DHT22;10788;47.930;9.766;2023-07-02T01:53:02;15.70;99.90
21261;DHT22;10788;47.930;9.766;2023-07-02T01:55:28;15.70;99.90
21261;DHT22;10788;47.930;9.766;2023-07-02T01:57:53;15.70;99.90
21261;DHT22;10788;47.930;9.766;2023-07-02T02:00:19;15.70;99.90
21261;DHT22;10788;47.930;9.766;2023-07-02T02:02:45;15.70;99.90
21261;DHT22;10788;47.930;9.766;2023-07-02T02:05:10;15.70;99.90
21261;DHT22;10788;47.930;9.766;2023-07-02T02:07:36;15.70;99.90
21261;DHT22;10788;47.930;9.766;2023-07-02T02:10:06;15.70;99.90
21261;DHT22;10788;47.930;9.766;2023-07-02T02:12:32;15.70;99.90
21261;DHT22;10788;47.930;9.766;2023-07-02T02:14:58;15.60;99.90
21261;DHT22;10788;47.930;9.766;2023-07-02T02:17:24;15.60;99.90
21261;DHT22;10788;47.930;9.766;2023-07-02T02:19:49;15.60;99.90
21261;DHT22;10788;47.930;9.766;2023-07-02T02:22:15;15.50;99.90
21261;DHT22;10788;47.930;9.766;2023-07-02T02:24:42;15.50;99.90
21261;DHT22;10788;47.930;9.766;2023-07-02T02:27:07;15.50;99.90
21261;DHT22;10788;47.930;9.766;2023-07-02T02:29:34;15.50;99.90
21261;DHT22;10788;47.930;9.766;2023-07-02T02:32:00;15.60;99.90
21261;DHT22;10788;47.930;9.766;2023-07-02T02:34:25;15.50;99.90
21261;DHT22;10788;47.930;9.766;2023-07-02T02:36:51;15.60;99.90
21261;DHT22;10788;47.930;9.766;2023-07-02T02:39:16;15.50;99.90
21261;DHT22;10788;47.930;9.766;2023-07-02T02:41:42;15.50;99.90
21261;DHT22;10788;47.930;9.766;2023-07-02T02:44:07;15.50;99.90
21261;DHT22;10788;47.930;9.766;2023-07-02T02:46:33;15.50;99.90
21261;DHT22;10788;47.930;9.766;2023-07-02T02:48:59;15.50;99.90
21261;DHT22;10788;47.930;9.766;2023-07-02T02:51:24;15.50;99.90
21261;DHT22;10788;47.930;9.766;2023-07-02T02:53:50;15.50;99.90
21261;DHT22;10788;47.930;9.766;2023-07-02T02:56:15;15.60;99.90
21261;DHT22;10788;47.930;9.766;2023-07-02T02:58:41;15.60;99.90
21261;DHT22;10788;47.930;9.766;2023-07-02T03:01:07;15.50;99.90
21261;DHT22;10788;47.930;9.766;2023-07-02T03:03:38;15.50;99.90
21261;DHT22;10788;47.930;9.766;2023-07-02T03:06:05;15.50;99.90
21261;DHT22;10788;47.930;9.766;2023-07-02T03:08:30;15.50;99.90
21261;DHT22;10788;47.930;9.766;2023-07-02T03:10:57;15.50;99.90
21261;DHT22;10788;47.930;9.766;2023-07-02T03:13:22;15.40;99.90
21261;DHT22;10788;47.930;9.766;2023-07-02T03:15:48;15.50;99.90
21261;DHT22;10788;47.930;9.766;2023-07-02T03:18:13;15.50;99.90
21261;DHT22;10788;47.930;9.766;2023-07-02T03:20:39;15.50;99.90
21261;DHT22;10788;47.930;9.766;2023-07-02T03:23:04;15.50;99.90
21261;DHT22;10788;47.930;9.766;2023-07-02T03:25:30;15.50;99.90
21261;DHT22;10788;47.930;9.766;2023-07-02T03:27:56;15.50;99.90
21261;DHT22;10788;47.930;9.766;2023-07-02T03:30:21;15.40;99.90
21261;DHT22;10788;47.930;9.766;2023-07-02T03:32:47;15.40;99.90
21261;DHT22;10788;47.930;9.766;2023-07-02T03:35:13;15.50;99.90
21261;DHT22;10788;47.930;9.766;2023-07-02T03:37:38;15.50;99.90
21261;DHT22;10788;47.930;9.766;2023-07-02T03:40:07;15.50;99.90
21261;DHT22;10788;47.930;9.766;2023-07-02T03:42:33;15.50;99.90
21261;DHT22;10788;47.930;9.766;2023-07-02T03:44:59;15.60;99.90
21261;DHT22;10788;47.930;9.766;2023-07-02T03:47:25;15.60;99.90
21261;DHT22;10788;47.930;9.766;2023-07-02T03:49:50;15.60;99.90
21261;DHT22;10788;47.930;9.766;2023-07-02T03:52:16;15.60;99.90
21261;DHT22;10788;47.930;9.766;2023-07-02T03:54:41;15.60;99.90
21261;DHT22;10788;47.930;9.766;2023-07-02T03:57:07;15.60;99.90
21261;DHT22;10788;47.930;9.766;2023-07-02T03:59:34;15.60;99.90
21261;DHT22;10788;47.930;9.766;2023-07-02T04:01:59;15.60;99.90
21261;DHT22;10788;47.930;9.766;2023-07-02T04:04:25;15.60;99.90
21261;DHT22;10788;47.930;9.766;2023-07-02T04:06:50;15.50;99.90
21261;DHT22;10788;47.930;9.766;2023-07-02T04:09:16;15.60;99.90
21261;DHT22;10788;47.930;9.766;2023-07-02T04:11:43;15.60;99.90
21261;DHT22;10788;47.930;9.766;2023-07-02T04:14:09;15.70;99.90
21261;DHT22;10788;47.930;9.766;2023-07-02T04:16:35;15.60;99.90
21261;DHT22;10788;47.930;9.766;2023-07-02T04:19:00;15.60;99.90
21261;DHT22;10788;47.930;9.766;2023-07-02T04:21:26;15.70;99.90
21261;DHT22;10788;47.930;9.766;2023-07-02T04:23:51;15.70;99.90
21261;DHT22;10788;47.930;9.766;2023-07-02T04:26:17;15.70;99.90
21261;DHT22;10788;47.930;9.766;2023-07-02T04:28:43;15.80;99.90
21261;DHT22;10788;47.930;9.766;2023-07-02T04:31:09;15.70;99.90
21261;DHT22;10788;47.930;9.766;2023-07-02T04:33:34;15.70;99.90
21261;DHT22;10788;47.930;9.766;2023-07-02T04:36:04;15.70;99.90
21261;DHT22;10788;47.930;9.766;2023-07-02T04:38:30;15.80;99.90
21261;DHT22;10788;47.930;9.766;2023-07-02T04:40:56;15.80;99.90
21261;DHT22;10788;47.930;9.766;2023-07-02T04:43:33;15.80;99.90
21261;DHT22;10788;47.930;9.766;2023-07-02T04:45:58;15.80;99.90
21261;DHT22;10788;47.930;9.766;2023-07-02T04:48:24;15.80;99.90
21261;DHT22;10788;47.930;9.766;2023-07-02T04:50:50;15.90;99.90
21261;DHT22;10788;47.930;9.766;2023-07-02T04:53:15;15.90;99.90
21261;DHT22;10788;47.930;9.766;2023-07-02T04:55:42;15.90;99.90
21261;DHT22;10788;47.930;9.766;2023-07-02T04:58:08;15.90;99.90
21261;DHT22;10788;47.930;9.766;2023-07-02T05:00:33;15.90;99.90
21261;DHT22;10788;47.930;9.766;2023-07-02T05:02:59;15.90;99.90
21261;DHT22;10788;47.930;9.766;2023-07-02T05:05:25;15.90;99.90
21261;DHT22;10788;47.930;9.766;2023-07-02T05:07:50;15.80;99.90
21261;DHT22;10788;47.930;9.766;2023-07-02T05:10:16;15.90;99.90
21261;DHT22;10788;47.930;9.766;2023-07-02T05:12:41;15.80;99.90
21261;DHT22;10788;47.930;9.766;2023-07-02T05:15:07;15.80;99.90
21261;DHT22;10788;47.930;9.766;2023-07-02T05:17:33;15.90;99.90
21261;DHT22;10788;47.930;9.766;2023-07-02T05:20:02;15.80;99.90
21261;DHT22;10788;47.930;9.766;2023-07-02T05:22:28;15.90;99.90
21261;DHT22;10788;47.930;9.766;2023-07-02T05:24:54;15.90;99.90
21261;DHT22;10788;47.930;9.766;2023-07-02T05:27:19;15.80;99.90
21261;DHT22;10788;47.930;9.766;2023-07-02T05:29:45;15.80;99.90
21261;DHT22;10788;47.930;9.766;2023-07-02T05:32:11;15.80;99.90
21261;DHT22;10788;47.930;9.766;2023-07-02T05:34:36;15.90;99.90
21261;DHT22;10788;47.930;9.766;2023-07-02T05:37:02;15.90;99.90
21261;DHT22;10788;47.930;9.766;2023-07-02T05:39:28;15.90;99.90
21261;DHT22;10788;47.930;9.766;2023-07-02T05:41:53;15.90;99.90
21261;DHT22;10788;47.930;9.766;2023-07-02T05:44:19;15.90;99.90
21261;DHT22;10788;47.930;9.766;2023-07-02T05:46:45;15.90;99.90
21261;DHT22;10788;47.930;9.766;2023-07-02T05:49:10;15.90;99.90
21261;DHT22;10788;47.930;9.766;2023-07-02T05:51:36;15.90;99.90
21261;DHT22;10788;47.930;9.766;2023-07-02T05:54:01;15.90;99.90
21261;DHT22;10788;47.930;9.766;2023-07-02T05:56:27;15.90;99.90
21261;DHT22;10788;47.930;9.766;2023-07-02T05:58:53;15.90;99.90
21261;DHT22;10788;47.930;9.766;2023-07-02T06:01:18;15.90;99.90
21261;DHT22;10788;47.930;9.766;2023-07-02T06:03:44;16.00;99.90
21261;DHT22;10788;47.930;9.766;2023-07-02T06:06:11;16.10;99.90
21261;DHT22;10788;47.930;9.766;2023-07-02T06:08:37;16.00;99.90
21261;DHT22;10788;47.930;9.766;2023-07-02T06:11:02;16.00;99.90
21261;DHT22;10788;47.930;9.766;2023-07-02T06:13:28;16.10;99.90
21261;DHT22;10788;47.930;9.766;2023-07-02T06:15:54;16.00;99.90
21261;DHT22;10788;47.930;9.766;2023-07-02T06:18:19;16.00;99.90
21261;DHT22;10788;47.930;9.766;2023-07-02T06:20:46;16.00;99.90
21261;DHT22;10788;47.930;9.766;2023-07-02T06:23:12;16.00;99.90
21261;DHT22;10788;47.930;9.766;2023-07-02T06:25:37;16.00;99.90
21261;DHT22;10788;47.930;9.766;2023-07-02T06:28:03;16.00;99.90
21261;DHT22;10788;47.930;9.766;2023-07-02T06:30:29;16.00;99.90
21261;DHT22;10788;47.930;9.766;2023-07-02T06:32:55;16.00;99.90
21261;DHT22;10788;47.930;9.766;2023-07-02T06:35:21;16.10;99.90
21261;DHT22;10788;47.930;9.766;2023-07-02T06:37:46;16.00;99.90
21261;DHT22;10788;47.930;9.766;2023-07-02T06:40:12;16.10;99.90
21261;DHT22;10788;47.930;9.766;2023-07-02T06:42:38;16.00;99.90
21261;DHT22;10788;47.930;9.766;2023-07-02T06:45:04;16.10;99.90
21261;DHT22;10788;47.930;9.766;2023-07-02T06:47:30;16.10;99.90
21261;DHT22;10788;47.930;9.766;2023-07-02T06:49:56;16.20;99.90
21261;DHT22;10788;47.930;9.766;2023-07-02T06:52:21;16.20;99.90
21261;DHT22;10788;47.930;9.766;2023-07-02T06:54:47;16.20;99.90
21261;DHT22;10788;47.930;9.766;2023-07-02T06:57:13;16.20;99.90
21261;DHT22;10788;47.930;9.766;2023-07-02T06:59:39;16.30;99.90
21261;DHT22;10788;47.930;9.766;2023-07-02T07:02:04;16.40;99.90
21261;DHT22;10788;47.930;9.766;2023-07-02T07:04:30;16.30;99.90
21261;DHT22;10788;47.930;9.766;2023-07-02T07:06:55;16.30;99.90
21261;DHT22;10788;47.930;9.766;2023-07-02T07:09:21;16.30;99.90
21261;DHT22;10788;47.930;9.766;2023-07-02T07:11:47;16.40;99.90
21261;DHT22;10788;47.930;9.766;2023-07-02T07:14:13;16.40;99.90
21261;DHT22;10788;47.930;9.766;2023-07-02T07:16:39;16.30;99.90
21261;DHT22;10788;47.930;9.766;2023-07-02T07:19:05;16.30;99.90
21261;DHT22;10788;47.930;9.766;2023-07-02T07:21:31;16.30;99.90
21261;DHT22;10788;47.930;9.766;2023-07-02T07:23:56;16.30;99.90
21261;DHT22;10788;47.930;9.766;2023-07-02T07:26:22;16.30;99.90
21261;DHT22;10788;47.930;9.766;2023-07-02T07:28:49;16.40;99.90
21261;DHT22;10788;47.930;9.766;2023-07-02T07:31:14;16.40;99.90
21261;DHT22;10788;47.930;9.766;2023-07-02T07:33:40;16.50;99.90
21261;DHT22;10788;47.930;9.766;2023-07-02T07:36:06;16.50;99.90
21261;DHT22;10788;47.930;9.766;2023-07-02T07:38:32;16.60;99.90
21261;DHT22;10788;47.930;9.766;2023-07-02T07:40:57;16.60;99.90
21261;DHT22;10788;47.930;9.766;2023-07-02T07:43:23;16.50;99.90
21261;DHT22;10788;47.930;9.766;2023-07-02T07:45:49;16.40;99.90
21261;DHT22;10788;47.930;9.766;2023-07-02T07:48:15;16.50;99.90
21261;DHT22;10788;47.930;9.766;2023-07-02T07:50:40;16.50;99.90
21261;DHT22;10788;47.930;9.766;2023-07-02T07:53:06;16.50;99.90
21261;DHT22;10788;47.930;9.766;2023-07-02T07:55:32;16.40;99.90
21261;DHT22;10788;47.930;9.766;2023-07-02T07:57:57;16.50;99.90
21261;DHT22;10788;47.930;9.766;2023-07-02T08:00:23;16.50;99.90
21261;DHT22;10788;47.930;9.766;2023-07-02T08:02:50;16.60;99.90
21261;DHT22;10788;47.930;9.766;2023-07-02T08:05:17;16.70;99.90
21261;DHT22;10788;47.930;9.766;2023-07-02T08:07:43;16.80;99.90
21261;DHT22;10788;47.930;9.766;2023-07-02T08:10:09;16.90;99.90
21261;DHT22;10788;47.930;9.766;2023-07-02T08:12:35;16.90;99.90
21261;DHT22;10788;47.930;9.766;2023-07-02T08:15:01;17.00;99.90
21261;DHT22;10788;47.930;9.766;2023-07-02T08:17:27;17.10;99.90
21261;DHT22;10788;47.930;9.766;2023-07-02T08:19:52;17.20;99.90
21261;DHT22;10788;47.930;9.766;2023-07-02T08:22:18;17.30;99.90
21261;DHT22;10788;47.930;9.766;2023-07-02T08:24:44;17.40;99.90
21261;DHT22;10788;47.930;9.766;2023-07-02T08:27:09;17.40;99.90
21261;DHT22;10788;47.930;9.766;2023-07-02T08:29:39;17.50;99.90
21261;DHT22;10788;47.930;9.766;2023-07-02T08:32:04;17.60;99.90
21261;DHT22;10788;47.930;9.766;2023-07-02T08:34:30;17.80;99.90
21261;DHT22;10788;47.930;9.766;2023-07-02T08:36:55;17.90;99.90
21261;DHT22;10788;47.930;9.766;2023-07-02T08:39:21;18.10;99.90
21261;DHT22;10788;47.930;9.766;2023-07-02T08:41:47;18.40;99.90
21261;DHT22;10788;47.930;9.766;2023-07-02T08:44:16;18.40;99.90
21261;DHT22;10788;47.930;9.766;2023-07-02T08:46:43;18.30;99.90
21261;DHT22;10788;47.930;9.766;2023-07-02T08:49:09;18.00;99.90
21261;DHT22;10788;47.930;9.766;2023-07-02T08:51:35;18.10;99.90
21261;DHT22;10788;47.930;9.766;2023-07-02T08:54:02;18.10;99.90
21261;DHT22;10788;47.930;9.766;2023-07-02T08:56:28;18.20;99.90
21261;DHT22;10788;47.930;9.766;2023-07-02T08:58:54;18.30;99.90
21261;DHT22;10788;47.930;9.766;2023-07-02T09:01:21;18.60;99.90
21261;DHT22;10788;47.930;9.766;2023-07-02T09:03:48;18.70;99.90
21261;DHT22;10788;47.930;9.766;2023-07-02T09:06:17;18.90;99.90
21261;DHT22;10788;47.930;9.766;2023-07-02T09:08:43;19.20;99.90
21261;DHT22;10788;47.930;9.766;2023-07-02T09:11:10;19.50;99.90
21261;DHT22;10788;47.930;9.766;2023-07-02T09:13:43;19.90;99.90
21261;DHT22;10788;47.930;9.766;2023-07-02T09:16:28;19.90;99.90
21261;DHT22;10788;47.930;9.766;2023-07-02T09:19:04;19.90;99.90
21261;DHT22;10788;47.930;9.766;2023-07-02T09:21:47;19.80;99.90
21261;DHT22;10788;47.930;9.766;2023-07-02T09:24:20;19.90;99.90
21261;DHT22;10788;47.930;9.766;2023-07-02T09:26:50;20.00;99.90
21261;DHT22;10788;47.930;9.766;2023-07-02T09:29:28;20.00;99.90
21261;DHT22;10788;47.930;9.766;2023-07-02T09:31:56;20.10;99.90
21261;DHT22;10788;47.930;9.766;2023-07-02T09:34:27;20.40;99.90
21261;DHT22;10788;47.930;9.766;2023-07-02T09:36:53;20.50;99.90
21261;DHT22;10788;47.930;9.766;2023-07-02T09:39:20;20.60;99.90
21261;DHT22;10788;47.930;9.766;2023-07-02T09:41:49;20.60;99.90
21261;DHT22;10788;47.930;9.766;2023-07-02T09:44:15;20.50;99.90
21261;DHT22;10788;47.930;9.766;2023-07-02T09:46:52;20.30;99.90
21261;DHT22;10788;47.930;9.766;2023-07-02T09:49:20;20.20;99.90
21261;DHT22;10788;47.930;9.766;2023-07-02T09:51:47;20.20;99.90
21261;DHT22;10788;47.930;9.766;2023-07-02T09:54:13;20.30;99.90
21261;DHT22;10788;47.930;9.766;2023-07-02T09:56:40;20.50;99.90
21261;DHT22;10788;47.930;9.766;2023-07-02T09:59:05;20.60;99.90
21261;DHT22;10788;47.930;9.766;2023-07-02T10:01:31;20.80;99.90
21261;DHT22;10788;47.930;9.766;2023-07-02T10:03:57;21.00;99.90
21261;DHT22;10788;47.930;9.766;2023-07-02T10:06:22;21.20;99.90
21261;DHT22;10788;47.930;9.766;2023-07-02T10:08:54;20.80;99.90
21261;DHT22;10788;47.930;9.766;2023-07-02T10:11:21;20.90;99.90
21261;DHT22;10788;47.930;9.766;2023-07-02T10:13:58;21.00;99.90
21261;DHT22;10788;47.930;9.766;2023-07-02T10:16:24;21.20;99.90
21261;DHT22;10788;47.930;9.766;2023-07-02T10:18:52;21.40;99.90
21261;DHT22;10788;47.930;9.766;2023-07-02T10:21:18;21.50;99.90
21261;DHT22;10788;47.930;9.766;2023-07-02T10:23:44;21.60;99.90
21261;DHT22;10788;47.930;9.766;2023-07-02T10:26:19;21.50;99.90
21261;DHT22;10788;47.930;9.766;2023-07-02T10:29:00;21.60;99.90
21261;DHT22;10788;47.930;9.766;2023-07-02T10:31:25;21.80;99.90
21261;DHT22;10788;47.930;9.766;2023-07-02T10:33:51;22.10;99.90
21261;DHT22;10788;47.930;9.766;2023-07-02T10:36:21;22.20;99.90
21261;DHT22;10788;47.930;9.766;2023-07-02T10:38:51;22.40;99.90
21261;DHT22;10788;47.930;9.766;2023-07-02T10:41:28;22.50;99.90
21261;DHT22;10788;47.930;9.766;2023-07-02T10:44:04;22.00;99.90
21261;DHT22;10788;47.930;9.766;2023-07-02T10:46:30;21.70;99.90
21261;DHT22;10788;47.930;9.766;2023-07-02T10:48:56;21.50;99.90
21261;DHT22;10788;47.930;9.766;2023-07-02T10:51:22;21.50;99.90
21261;DHT22;10788;47.930;9.766;2023-07-02T10:54:02;21.20;99.90
21261;DHT22;10788;47.930;9.766;2023-07-02T10:56:30;21.00;99.90
21261;DHT22;10788;47.930;9.766;2023-07-02T10:58:56;21.00;99.90
21261;DHT22;10788;47.930;9.766;2023-07-02T11:01:29;21.00;99.90
21261;DHT22;10788;47.930;9.766;2023-07-02T11:04:03;20.90;99.90
21261;DHT22;10788;47.930;9.766;2023-07-02T11:06:31;20.70;99.90
21261;DHT22;10788;47.930;9.766;2023-07-02T11:08:59;20.60;99.90
21261;DHT22;10788;47.930;9.766;2023-07-02T11:11:25;20.70;99.90
21261;DHT22;10788;47.930;9.766;2023-07-02T11:13:51;20.70;99.90
21261;DHT22;10788;47.930;9.766;2023-07-02T11:16:23;20.70;99.90
21261;DHT22;10788;47.930;9.766;2023-07-02T11:19:08;20.90;99.90
21261;DHT22;10788;47.930;9.766;2023-07-02T11:21:35;20.90;99.90
21261;DHT22;10788;47.930;9.766;2023-07-02T11:24:06;20.80;99.90
21261;DHT22;10788;47.930;9.766;2023-07-02T11:26:36;21.10;99.90
21261;DHT22;10788;47.930;9.766;2023-07-02T11:29:02;21.00;99.90
21261;DHT22;10788;47.930;9.766;2023-07-02T11:31:28;21.00;99.90
21261;DHT22;10788;47.930;9.766;2023-07-02T11:33:54;21.10;99.90
21261;DHT22;10788;47.930;9.766;2023-07-02T11:36:23;21.20;99.90
21261;DHT22;10788;47.930;9.766;2023-07-02T11:38:55;21.00;99.90
21261;DHT22;10788;47.930;9.766;2023-07-02T11:41:21;20.90;99.90
21261;DHT22;10788;47.930;9.766;2023-07-02T11:43:47;21.00;99.90
21261;DHT22;10788;47.930;9.766;2023-07-02T11:46:13;21.10;99.90
21261;DHT22;10788;47.930;9.766;2023-07-02T11:48:39;21.20;99.90
21261;DHT22;10788;47.930;9.766;2023-07-02T11:51:04;21.20;99.90
21261;DHT22;10788;47.930;9.766;2023-07-02T11:53:30;21.30;99.90
21261;DHT22;10788;47.930;9.766;2023-07-02T11:55:55;21.40;99.90
21261;DHT22;10788;47.930;9.766;2023-07-02T11:58:21;21.40;99.90
21261;DHT22;10788;47.930;9.766;2023-07-02T12:00:47;21.40;99.90
21261;DHT22;10788;47.930;9.766;2023-07-02T12:03:12;21.40;99.90
21261;DHT22;10788;47.930;9.766;2023-07-02T12:05:38;21.60;99.90
21261;DHT22;10788;47.930;9.766;2023-07-02T12:08:04;21.60;99.90
21261;DHT22;10788;47.930;9.766;2023-07-02T12:10:29;21.60;99.90
21261;DHT22;10788;47.930;9.766;2023-07-02T12:12:55;21.40;99.90
21261;DHT22;10788;47.930;9.766;2023-07-02T12:15:20;21.40;99.90
21261;DHT22;10788;47.930;9.766;2023-07-02T12:17:46;21.50;99.90
21261;DHT22;10788;47.930;9.766;2023-07-02T12:20:11;21.60;99.90
21261;DHT22;10788;47.930;9.766;2023-07-02T12:22:37;21.70;99.90
21261;DHT22;10788;47.930;9.766;2023-07-02T12:25:03;21.80;99.90
21261;DHT22;10788;47.930;9.766;2023-07-02T12:27:29;22.10;99.90
21261;DHT22;10788;47.930;9.766;2023-07-02T12:29:55;22.20;99.90
21261;DHT22;10788;47.930;9.766;2023-07-02T12:32:21;22.10;99.90
21261;DHT22;10788;47.930;9.766;2023-07-02T12:34:47;22.00;99.90
21261;DHT22;10788;47.930;9.766;2023-07-02T12:37:12;22.10;99.90
21261;DHT22;10788;47.930;9.766;2023-07-02T12:39:42;22.10;99.90
21261;DHT22;10788;47.930;9.766;2023-07-02T12:42:08;22.10;99.90
21261;DHT22;10788;47.930;9.766;2023-07-02T12:44:33;22.00;99.90
21261;DHT22;10788;47.930;9.766;2023-07-02T12:46:59;22.10;99.90
21261;DHT22;10788;47.930;9.766;2023-07-02T12:49:24;22.10;99.90
21261;DHT22;10788;47.930;9.766;2023-07-02T12:51:50;22.20;99.90
21261;DHT22;10788;47.930;9.766;2023-07-02T12:54:15;22.20;99.90
21261;DHT22;10788;47.930;9.766;2023-07-02T12:56:41;22.30;99.90
21261;DHT22;10788;47.930;9.766;2023-07-02T12:59:07;22.10;99.90
21261;DHT22;10788;47.930;9.766;2023-07-02T13:01:32;22.10;99.90
21261;DHT22;10788;47.930;9.766;2023-07-02T13:03:58;22.10;99.90
21261;DHT22;10788;47.930;9.766;2023-07-02T13:06:25;22.20;99.90
21261;DHT22;10788;47.930;9.766;2023-07-02T13:08:50;22.20;99.90
21261;DHT22;10788;47.930;9.766;2023-07-02T13:11:16;22.20;99.90
21261;DHT22;10788;47.930;9.766;2023-07-02T13:13:41;22.20;99.90
21261;DHT22;10788;47.930;9.766;2023-07-02T13:16:07;22.40;99.90
21261;DHT22;10788;47.930;9.766;2023-07-02T13:18:33;22.70;99.90
21261;DHT22;10788;47.930;9.766;2023-07-02T13:20:58;23.00;99.90
21261;DHT22;10788;47.930;9.766;2023-07-02T13:23:24;23.10;99.90
21261;DHT22;10788;47.930;9.766;2023-07-02T13:25:50;23.20;99.90
21261;DHT22;10788;47.930;9.766;2023-07-02T13:28:15;23.20;99.90
21261;DHT22;10788;47.930;9.766;2023-07-02T13:30:42;23.20;99.90
21261;DHT22;10788;47.930;9.766;2023-07-02T13:33:07;23.20;99.90
21261;DHT22;10788;47.930;9.766;2023-07-02T13:35:33;23.20;99.90
21261;DHT22;10788;47.930;9.766;2023-07-02T13:37:59;23.30;99.90
21261;DHT22;10788;47.930;9.766;2023-07-02T13:40:29;23.30;99.90
21261;DHT22;10788;47.930;9.766;2023-07-02T13:42:55;23.20;99.90
21261;DHT22;10788;47.930;9.766;2023-07-02T13:45:21;23.20;99.90
21261;DHT22;10788;47.930;9.766;2023-07-02T13:47:47;23.30;99.90
21261;DHT22;10788;47.930;9.766;2023-07-02T13:50:12;23.40;99.90
21261;DHT22;10788;47.930;9.766;2023-07-02T13:52:38;23.40;99.90
21261;DHT22;10788;47.930;9.766;2023-07-02T13:55:04;23.50;99.90
21261;DHT22;10788;47.930;9.766;2023-07-02T13:57:30;23.50;99.90
21261;DHT22;10788;47.930;9.766;2023-07-02T13:59:55;23.50;99.90
21261;DHT22;10788;47.930;9.766;2023-07-02T14:02:23;23.60;99.90
21261;DHT22;10788;47.930;9.766;2023-07-02T14:04:48;23.60;99.90
21261;DHT22;10788;47.930;9.766;2023-07-02T14:07:14;23.50;99.90
21261;DHT22;10788;47.930;9.766;2023-07-02T14:09:40;23.40;99.90
21261;DHT22;10788;47.930;9.766;2023-07-02T14:12:06;23.30;99.90
21261;DHT22;10788;47.930;9.766;2023-07-02T14:14:31;23.10;99.90
21261;DHT22;10788;47.930;9.766;2023-07-02T14:16:57;23.10;99.90
21261;DHT22;10788;47.930;9.766;2023-07-02T14:19:23;23.20;99.90
21261;DHT22;10788;47.930;9.766;2023-07-02T14:21:48;23.20;99.90
21261;DHT22;10788;47.930;9.766;2023-07-02T14:24:14;23.40;99.90
21261;DHT22;10788;47.930;9.766;2023-07-02T14:26:40;23.30;99.90
21261;DHT22;10788;47.930;9.766;2023-07-02T14:29:05;23.20;99.90
21261;DHT22;10788;47.930;9.766;2023-07-02T14:31:31;23.10;99.90
21261;DHT22;10788;47.930;9.766;2023-07-02T14:33:57;23.10;99.90
21261;DHT22;10788;47.930;9.766;2023-07-02T14:36:23;23.20;99.90
21261;DHT22;10788;47.930;9.766;2023-07-02T14:38:48;23.30;99.90
21261;DHT22;10788;47.930;9.766;2023-07-02T14:41:14;23.40;99.90
21261;DHT22;10788;47.930;9.766;2023-07-02T14:43:39;23.40;99.90
21261;DHT22;10788;47.930;9.766;2023-07-02T14:46:05;23.50;99.90
21261;DHT22;10788;47.930;9.766;2023-07-02T14:48:31;23.50;99.90
21261;DHT22;10788;47.930;9.766;2023-07-02T14:50:58;23.60;99.90
21261;DHT22;10788;47.930;9.766;2023-07-02T14:53:26;23.50;99.90
21261;DHT22;10788;47.930;9.766;2023-07-02T14:55:58;23.60;99.90
21261;DHT22;10788;47.930;9.766;2023-07-02T14:58:25;23.70;99.90
21261;DHT22;10788;47.930;9.766;2023-07-02T15:00:53;23.80;99.90
21261;DHT22;10788;47.930;9.766;2023-07-02T15:03:20;23.70;99.90
21261;DHT22;10788;47.930;9.766;2023-07-02T15:05:48;23.60;99.90
21261;DHT22;10788;47.930;9.766;2023-07-02T15:08:15;23.40;99.90
21261;DHT22;10788;47.930;9.766;2023-07-02T15:10:46;23.50;99.90
21261;DHT22;10788;47.930;9.766;2023-07-02T15:13:12;23.40;99.90
21261;DHT22;10788;47.930;9.766;2023-07-02T15:15:38;23.50;99.90
21261;DHT22;10788;47.930;9.766;2023-07-02T15:18:05;23.30;99.90
21261;DHT22;10788;47.930;9.766;2023-07-02T15:20:31;23.30;99.90
21261;DHT22;10788;47.930;9.766;2023-07-02T15:22:56;23.20;99.90
21261;DHT22;10788;47.930;9.766;2023-07-02T15:25:22;23.20;99.90
21261;DHT22;10788;47.930;9.766;2023-07-02T15:27:48;23.30;99.90
21261;DHT22;10788;47.930;9.766;2023-07-02T15:30:14;23.30;99.90